Weather at White Mountain Airport

Public forecast

Using degrees Fahrenheit for public forecast. Weather courtesy of forecast.io.

Current aviation weather report (METAR) for White Mountain Airport

2024/07/22 12:56 (retrieved 48 minutes ago)

PAWM 221256Z AUTO 36008KT 8SM CLR 13/08 A3014 RMK AO2 SLP208 T01330078 PNO

Closest aviation forecast (TAF) to White Mountain Airport

Closest forecast is Nome Airport, 53.4 nm (98.9 km) W.

2024/07/22 12:34 (retrieved 1 hour ago)

TAF PAOM 221132Z 2212/2312 36003KT P6SM SCT200 FM222200 24008KT P6SM SCT200